Huntington, TX (75949)

10:14 PM CDT on May 22, 2017 (GMT -0500)
Huntington, Texas | | Change Station
Active Advisory: Flood Warning

Elev 274 ft 31.29 °N, 94.61 °W | Updated 11 minutes ago

Overcast
Overcast
65.2 °F
Feels Like 65.2 °F
N
0.0
Wind Variable Wind from NW
Gusts 0.0 mph

Today
High -- | Low -- °F
--% Chance of Precip.
Yesterday
High -- | Low -- °F
Precip. -- in
Pressure 29.91 in
Visibility 10.0 miles
Clouds Overcast 1300 ft
Dew Point 64 °F
Humidity 95%
Rainfall 2.49 in
Snow Depth Not available.
6:18 AM 8:12 PM
Waning Crescent, 11% visible
SPECI KLFK 230300Z AUTO 36004KT 10SM OVC013 18/17 A2991 RMK AO2 T01830167
Pressure 29.91 in
Visibility 10.0 miles
Clouds Overcast 1300 ft
Dew Point 64 °F
Humidity 95%
Rainfall 2.49 in
Snow Depth Not available.
6:18 AM 8:12 PM
Waning Crescent, 11% visible
SPECI KLFK 230300Z AUTO 36004KT 10SM OVC013 18/17 A2991 RMK AO2 T01830167

Get Your Daily Forecast Email!

Thanks for signing up!

Be on the lookout for a verification email in your inbox.

You'll start receiving severe weather alerts in your inbox..

×

10-Day Weather Forecast

Almanac

Astronomy

May. 22, 2017 Rise Set
Actual Time
Civil Twilight
Nautical Twilight
Astronomical Twilight
Moon
Length of Visible Light
Length of Day
Tomorrow will be .
, % of the Moon is Illuminated

Today's Extremes

State Highs State Lows

Community

WunderPhotos

Category 6

Welcome to Category 6. This is the collective home for Weather Underground's featured writeups by Dr. Jeff Masters (right), Bob Henson (left), Chris Burt, and other regular contributors.

Nearby

Air Quality

  Air Quality AQ Index Pollutant
Not available.

Snow Depth

Station Depth Elevation

Earthquake Activity

City Distance Mag. Time & Date
Minimum magnitude displayed is 2.5.

Coastal Water Temperatures

Place Temperature

Stations

Nearby Weather Stations

Station Location Temp. Windchill Dew Point Humidity Wind Precip. Elev Updated Type
                   

Watches & Warnings

Flood Warning
Issued: 8:06 PM CDT May. 22, 2017 – National Weather Service

The Flood Warning continues for
the Angelina river near Lufkin.
* From Tuesday morning to late Thursday night... or until the warning
is cancelled.
* At 7:00 am Monday the stage was 7.7 feet.
* Minor flooding is forecast.
* Flood stage is 10.0 feet.
* Forecast... rise above flood stage by tomorrow late morning and
continue to rise to near 10.1 feet by tomorrow early afternoon. The
river will fall below flood stage by Wednesday early afternoon.
* Impact... at 10.0 feet... expect minor lowland flooding of the heavily
wooded floodplain. Also expect flooding of boat launches as well.


Lat... Lon 3144 9462 3145 9474 3148 9482 3150 9482 3146 9466


25